HBBA/BJM METAR and TAF weather

Enter ICAO airport designator
Station Type Date Time Source
HBBA METAR 2022/01/19 14:00 UTC NOAA

HBBA 191400Z 18012KT 9000 FEW025TCU FEW030CB BKN10026/19 Q1010


Station Type Date Time Source
HBBA Decoded METAR 2022/01/19 14:00 UTC NOAA

Bujumbura, Burundi (HBBA) 03-19S 029-19E 783M
Jan 19, 2022 - 09:00 AM EST / 2022.01.19 1400 UTC
Wind: from the S (180 degrees) at 14 MPH (12 KT):0
Visibility: 5 mile(s):0
Sky conditions: mostly cloudy
Weather: Cumulonimbus clouds, towering cumulus clouds observed
Pressure (altimeter): 29.83 in. Hg (1010 hPa)
ob: HBBA 191400Z 18012KT 9000 FEW025TCU FEW030CB BKN10026/19 Q1010
cycle: 14

Station Type Date Time Source
HBBA TAF 2022/01/19 18:45 UTC NOAA

TAF HBBA 191700Z 1918/2024 36004KT 9000 FEW020 BKN080
BECMG2007/2009 18006G20KT 9999 FEW030 SCT100
TEMPO 2013/2017 7000 TSRA OR SHRA FEW025CB SCT090
BECMG2019/2021 36002KT 9999 FEW025 SCT090

Example: see airport list